Portada
METAR-TAF:

METAR-TAF

Aeroports :

Hiroshima, Japó

latitud: 34-26N, longitud: 132-55E, altitud: 331 m

Observació

L'informe es va fer fa 8 hores i 11 minuts, a les 13:00 UTC
Vent 9 kt del Nord
Temperatura 5°C
Humitat 60%
Pressió 1016 hPa
Visibilitat 10 km o més
Escasses núvols a una alçada de 3000 ft
Cel ennuvolat

METAR: RJOA 221300Z 01009KT 9999 FEW030 BKN/// 05/M02 Q1016

Hora: 06:11 (21:11 UTC)

Pronòstic

L'informe es va fer fa 4 hores i 5 minuts, a les 17:06 UTC
Pronòstic vàlid del 22 a les 18 UTC al 24 a les 00 UTC
Vent 4 kt del Nord/Nord-Est
Visibilitat 10 km o més
Escasses núvols a una alçada de 2500 ft
Núvols disperses a una alçada de 4000 ft
Evolucionant progressivament
l' 23 a les 01 UTC al 23 a les 03 UTC
Vent 6 kt del Sud/Sud-Oest
Evolucionant progressivament
l' 23 a les 06 UTC al 23 a les 09 UTC
Vent 10 kt del Nord-Oest

TAF: RJOA 221706Z 2218/2400 03004KT 9999 FEW025 SCT040 BECMG 2301/2303 20006KT BECMG 2306/2309 32010KT

Observacions i pronòstics meteorològics de més de 4000 aeroports (METAR i TAF).

Les estacions disponibles són els punts grocs i vermells al mapa.

Posi el ratolí al punt desitjat per veure el nom de l'estació.

Feu clic per veure les observacions i els pronòstics meteorològics.

Per canviar el mapa: feu clic els botons verds amb una creu de color negre per apropar; al botó verd amb un guió per allunyar la imatge; o en les fletxes verdes per a mapes adjacents.


METAR-TAF: